createdAt,value
2023-04-15T07:01:18.619Z,9.83
2023-04-15T07:04:21.472Z,10.26
2023-04-15T07:07:23.910Z,10.25
2023-04-15T07:10:26.511Z,10.90
2023-04-15T07:13:31.473Z,11.71
2023-04-15T07:16:35.781Z,12.52
2023-04-15T07:19:38.236Z,12.44
2023-04-15T07:22:40.954Z,11.61
2023-04-15T07:25:43.383Z,12.49
2023-04-15T07:28:47.345Z,12.93
2023-04-15T07:31:51.297Z,12.60
2023-04-15T07:34:54.071Z,11.93
2023-04-15T07:37:56.433Z,12.12
2023-04-15T07:40:59.261Z,12.29
2023-04-15T07:44:01.750Z,12.36
2023-04-15T07:47:06.235Z,11.99
2023-04-15T07:50:10.621Z,11.75
2023-04-15T07:53:13.659Z,11.74
2023-04-15T07:56:16.156Z,11.77
2023-04-15T07:59:18.864Z,11.90
2023-04-15T08:02:22.954Z,11.53
2023-04-15T08:05:25.949Z,12.27
2023-04-15T08:08:28.344Z,12.30
2023-04-15T08:11:31.523Z,12.55
2023-04-15T08:14:33.888Z,12.52
2023-04-15T08:17:37.961Z,12.39
2023-04-15T08:20:40.216Z,12.41
2023-04-15T08:23:43.125Z,12.63
2023-04-15T08:26:46.929Z,13.03
2023-04-15T08:29:49.734Z,13.35
2023-04-15T08:32:53.600Z,12.78
2023-04-15T08:35:56.634Z,12.62
2023-04-15T08:39:01.546Z,12.88
2023-04-15T08:42:07.074Z,12.72
2023-04-15T08:45:11.144Z,12.85
2023-04-15T08:48:16.824Z,12.43
2023-04-15T08:51:19.556Z,12.56
2023-04-15T08:54:22.746Z,12.28
2023-04-15T08:57:26.478Z,12.23
2023-04-15T09:00:29.192Z,12.48
2023-04-15T09:03:33.137Z,12.67
2023-04-15T09:06:35.900Z,12.66
2023-04-15T09:09:40.278Z,12.12
2023-04-15T09:12:43.028Z,12.27
2023-04-15T09:15:45.608Z,12.24
2023-04-15T09:18:49.552Z,12.67
2023-04-15T09:21:53.106Z,13.19
2023-04-15T09:24:55.774Z,13.68
2023-04-15T09:27:59.507Z,13.55
2023-04-15T09:31:02.767Z,13.37
2023-04-15T09:34:07.000Z,13.24
2023-04-15T09:37:10.997Z,12.92
2023-04-15T09:40:14.223Z,12.51
2023-04-15T09:43:17.321Z,12.79
2023-04-15T09:46:19.796Z,12.78
2023-04-15T09:49:24.013Z,13.10
2023-04-15T09:52:26.220Z,13.26
2023-04-15T09:55:28.927Z,13.28
2023-04-15T09:58:32.309Z,12.95
2023-04-15T10:01:35.082Z,12.94
2023-04-15T10:04:40.758Z,13.00
